Terminal Aerodrome Forecast
Issued by NWS Sterling, VA

Current Version | Previous Version | Text Only | Print | Product List | Glossary On
Versions: 1 2 3 4 5 6 7 8 9 10 11 12 13 14 15 16
000
FTUS41 KLWX 040540
TAFMRB
TAF
KMRB 040540Z 0406/0506 VRB04KT P6SM FEW090
     FM041600 21006KT P6SM FEW090
     FM041800 20010KT P6SM SCT090
     FM050200 19006KT P6SM SCT090=

USA.gov is the U.S. government's official web portal to all federal, state and local government web resources and services.